Time;durP1;ratioP1;P1;durP2;ratioP2;P2;SDS_P1;SDS_P2;PMS_P1;PMS_P2;Temp;Humidity;BMP_temperature;BMP_pressure;BME280_temperature;BME280_humidity;BME280_pressure;Samples;Min_cycle;Max_cycle;Signal;HPM_P1;HPM_P2
2022/03/19 00:01:03;;;;;;;75.85;28.48;;;5.60;70.30;;;;;;5091378;28;21112;-74
2022/03/19 00:03:31;;;;;;;73.60;29.35;;;5.40;71.10;;;;;;5080269;28;20046;-74
2022/03/19 00:05:58;;;;;;;81.05;29.67;;;5.50;70.70;;;;;;5089062;27;20066;-74
2022/03/19 00:08:26;;;;;;;77.20;28.40;;;5.70;70.20;;;;;;5096212;28;20182;-74
2022/03/19 00:10:54;;;;;;;79.90;31.30;;;5.80;69.80;;;;;;5097589;28;20494;-74
2022/03/19 00:13:21;;;;;;;76.25;28.15;;;5.40;70.70;;;;;;5095490;28;20562;-74
2022/03/19 00:15:48;;;;;;;87.40;29.65;;;5.50;70.70;;;;;;5077305;27;20036;-74
2022/03/19 00:18:16;;;;;;;73.10;27.77;;;5.70;70.20;;;;;;5093432;27;20059;-74
2022/03/19 00:20:43;;;;;;;74.85;28.00;;;5.40;71.40;;;;;;5087348;28;20044;-74
2022/03/19 00:23:11;;;;;;;71.70;27.63;;;5.30;71.20;;;;;;5096235;27;20044;-74
2022/03/19 00:25:38;;;;;;;76.95;27.73;;;4.90;72.50;;;;;;5112578;27;20785;-74
2022/03/19 00:28:05;;;;;;;73.22;27.05;;;4.70;73.20;;;;;;5113973;27;20046;-74
2022/03/19 00:30:33;;;;;;;71.90;27.10;;;4.90;73.00;;;;;;5097871;27;20050;-74
2022/03/19 00:33:00;;;;;;;85.00;27.25;;;5.20;71.60;;;;;;5097389;27;20582;-74
2022/03/19 00:35:27;;;;;;;72.85;28.30;;;5.40;70.90;;;;;;5080105;27;20510;-74
2022/03/19 00:37:54;;;;;;;71.25;28.35;;;5.60;69.70;;;;;;5081534;27;20047;-74
2022/03/19 00:40:23;;;;;;;83.13;29.77;;;5.60;69.80;;;;;;5116849;27;20104;-74
2022/03/19 00:42:50;;;;;;;78.30;26.40;;;5.60;69.70;;;;;;5100598;27;20071;-74
2022/03/19 00:45:17;;;;;;;72.53;28.73;;;5.20;71.10;;;;;;5099110;27;20040;-74
2022/03/19 00:47:45;;;;;;;77.35;30.77;;;5.20;71.40;;;;;;5112112;27;20038;-74
2022/03/19 00:50:13;;;;;;;76.10;28.50;;;5.30;70.50;;;;;;5095537;27;20097;-74
2022/03/19 00:52:40;;;;;;;77.57;28.10;;;5.20;70.80;;;;;;5113528;27;20056;-74
2022/03/19 00:55:09;;;;;;;71.45;27.77;;;5.40;70.40;;;;;;5098878;27;20142;-74
2022/03/19 00:57:46;;;;;;;73.85;26.50;;;5.40;70.50;;;;;;5099109;27;20217;-74
2022/03/19 01:00:18;;;;;;;69.70;26.20;;;5.50;69.70;;;;;;5116737;27;20044;-74
2022/03/19 01:02:45;;;;;;;74.13;28.23;;;5.50;69.50;;;;;;5116205;27;20035;-74
2022/03/19 01:05:14;;;;;;;71.03;28.25;;;5.50;69.60;;;;;;5118921;27;22422;-74
2022/03/19 01:07:49;;;;;;;79.00;28.65;;;5.40;69.90;;;;;;5080402;27;20238;-74
2022/03/19 01:10:24;;;;;;;68.60;27.30;;;5.30;70.30;;;;;;5081360;27;20066;-74
2022/03/19 01:12:53;;;;;;;77.47;27.08;;;4.90;72.00;;;;;;5099583;27;20043;-74
2022/03/19 01:15:21;;;;;;;75.00;29.75;;;5.10;72.00;;;;;;5102352;27;20610;-74
2022/03/19 01:17:49;;;;;;;69.10;27.00;;;5.20;72.10;;;;;;5114098;27;20542;-74
2022/03/19 01:20:17;;;;;;;70.40;28.00;;;5.20;71.60;;;;;;5097690;27;20136;-74
2022/03/19 01:22:46;;;;;;;73.32;26.67;;;5.20;71.40;;;;;;5098044;27;20039;-74
2022/03/19 01:25:15;;;;;;;71.13;28.15;;;5.10;71.90;;;;;;5098724;27;20034;-74
2022/03/19 01:27:44;;;;;;;86.75;29.58;;;5.30;71.30;;;;;;5099826;27;20039;-74
2022/03/19 01:30:13;;;;;;;77.63;27.27;;;5.40;70.90;;;;;;5115659;27;20048;-74
2022/03/19 01:32:41;;;;;;;70.80;26.83;;;5.50;70.70;;;;;;5116151;27;20043;-74
2022/03/19 01:35:10;;;;;;;65.97;26.00;;;5.30;71.10;;;;;;5097071;27;20047;-74
2022/03/19 01:37:38;;;;;;;90.63;28.88;;;5.30;72.10;;;;;;5098158;27;20655;-74
2022/03/19 01:40:08;;;;;;;78.95;29.77;;;5.30;71.80;;;;;;5112246;27;20074;-74
2022/03/19 01:42:37;;;;;;;72.72;29.77;;;4.70;73.20;;;;;;5103015;27;20409;-74
2022/03/19 01:45:09;;;;;;;67.50;26.75;;;4.50;74.30;;;;;;5115871;27;20039;-74
2022/03/19 01:47:36;;;;;;;68.80;25.17;;;4.50;74.60;;;;;;5098094;27;20355;-74
2022/03/19 01:50:04;;;;;;;72.88;25.45;;;4.60;74.20;;;;;;5091106;27;20032;-74
2022/03/19 01:52:31;;;;;;;67.00;24.10;;;4.60;73.70;;;;;;5097081;27;20481;-74
2022/03/19 01:54:59;;;;;;;64.07;23.60;;;4.70;73.10;;;;;;5091153;27;20052;-74
2022/03/19 01:57:34;;;;;;;56.20;22.65;;;5.20;71.90;;;;;;5099933;27;20031;-74
2022/03/19 02:00:05;;;;;;;66.82;23.83;;;5.30;70.90;;;;;;5097166;27;20039;-74
2022/03/19 02:02:39;;;;;;;60.88;23.95;;;5.30;70.70;;;;;;5116126;27;20043;-74
2022/03/19 02:05:12;;;;;;;60.88;21.25;;;5.00;71.20;;;;;;5117058;27;20478;-74
2022/03/19 02:07:40;;;;;;;53.50;21.60;;;4.50;72.60;;;;;;5101265;27;20062;-74
2022/03/19 02:10:07;;;;;;;56.38;22.67;;;4.40;73.50;;;;;;5081500;27;20174;-74
2022/03/19 02:12:36;;;;;;;57.28;22.25;;;4.60;73.50;;;;;;5097317;27;20039;-74
2022/03/19 02:15:04;;;;;;;53.20;22.17;;;5.00;72.00;;;;;;5112691;27;20100;-74
2022/03/19 02:17:31;;;;;;;61.78;21.90;;;5.20;70.70;;;;;;5097670;27;20050;-74
2022/03/19 02:20:01;;;;;;;62.10;24.23;;;5.20;70.70;;;;;;5096447;27;20432;-74
2022/03/19 02:22:29;;;;;;;55.65;20.55;;;5.40;70.20;;;;;;5095335;27;20042;-74
2022/03/19 02:27:44;;;;;;;53.58;20.10;;;5.50;69.30;;;;;;5089317;27;20059;-74
2022/03/19 02:30:15;;;;;;;52.42;21.30;;;5.50;68.80;;;;;;5094762;27;20089;-74
2022/03/19 02:32:44;;;;;;;51.20;21.65;;;5.50;69.00;;;;;;5081154;27;20050;-74
2022/03/19 02:35:11;;;;;;;53.67;21.80;;;5.40;69.60;;;;;;5099287;27;20052;-74
2022/03/19 02:37:47;;;;;;;50.35;20.60;;;5.50;69.10;;;;;;5090949;27;20401;-74
2022/03/19 02:40:17;;;;;;;50.92;20.38;;;5.50;69.10;;;;;;5114364;27;21442;-74
2022/03/19 02:42:52;;;;;;;56.65;21.02;;;5.50;69.10;;;;;;5092852;27;20048;-74
2022/03/19 02:45:21;;;;;;;47.13;19.10;;;5.40;69.70;;;;;;5081221;27;20510;-74
2022/03/19 02:47:57;;;;;;;61.17;22.25;;;5.50;69.80;;;;;;5096744;27;20042;-74
2022/03/19 02:50:35;;;;;;;52.35;19.83;;;5.50;69.20;;;;;;5095097;27;20040;-74
2022/03/19 02:53:05;;;;;;;54.58;20.02;;;5.40;69.70;;;;;;5114324;27;20451;-74
2022/03/19 02:55:36;;;;;;;51.63;19.75;;;5.10;69.70;;;;;;5081293;27;20040;-74
2022/03/19 02:58:05;;;;;;;49.40;18.92;;;4.80;71.30;;;;;;5095138;27;20054;-74
2022/03/19 03:00:33;;;;;;;43.85;16.30;;;4.80;70.40;;;;;;5097651;27;20731;-74
2022/03/19 03:03:01;;;;;;;42.70;17.40;;;4.90;70.20;;;;;;5096526;27;20860;-74
2022/03/19 03:05:28;;;;;;;41.65;17.38;;;5.10;69.30;;;;;;5080059;27;20514;-74
2022/03/19 03:07:55;;;;;;;41.75;17.67;;;5.30;68.00;;;;;;5117453;27;20046;-74
2022/03/19 03:10:23;;;;;;;43.90;16.55;;;5.30;68.10;;;;;;5096781;27;20040;-74
2022/03/19 03:12:50;;;;;;;46.38;17.40;;;5.40;67.70;;;;;;5080635;27;20071;-74
2022/03/19 03:15:17;;;;;;;48.85;17.15;;;5.50;67.40;;;;;;5112742;27;20035;-74
2022/03/19 03:17:45;;;;;;;37.47;16.38;;;5.50;67.50;;;;;;5117247;27;20043;-74
2022/03/19 03:20:13;;;;;;;44.33;17.52;;;5.40;68.30;;;;;;5113788;27;20043;-73
2022/03/19 03:22:42;;;;;;;40.13;15.70;;;5.40;68.00;;;;;;5115553;27;20210;-74
2022/03/19 03:25:10;;;;;;;44.47;15.52;;;5.40;68.30;;;;;;5097510;27;20067;-74
2022/03/19 03:27:38;;;;;;;41.70;16.75;;;5.30;68.60;;;;;;5095200;27;20043;-74
2022/03/19 03:30:06;;;;;;;40.63;16.63;;;5.30;68.30;;;;;;5096190;27;20508;-74
2022/03/19 03:32:33;;;;;;;44.53;18.17;;;5.50;67.80;;;;;;5099430;27;20867;-75
2022/03/19 03:35:00;;;;;;;47.88;16.00;;;5.10;68.30;;;;;;5115516;27;20062;-75
2022/03/19 03:37:27;;;;;;;45.05;16.30;;;4.80;69.80;;;;;;5090519;27;20035;-74
2022/03/19 03:39:54;;;;;;;37.63;16.70;;;4.80;70.50;;;;;;5098932;27;20092;-74
2022/03/19 03:42:21;;;;;;;44.15;16.13;;;4.90;70.50;;;;;;5099825;27;20056;-74
2022/03/19 03:44:48;;;;;;;43.33;15.30;;;5.30;68.90;;;;;;5096128;27;20047;-74
2022/03/19 03:47:15;;;;;;;40.95;16.55;;;5.50;68.40;;;;;;5094237;27;20051;-74
2022/03/19 03:49:42;;;;;;;46.00;17.10;;;5.30;68.30;;;;;;5112624;27;22247;-73
2022/03/19 03:52:09;;;;;;;48.45;17.90;;;5.20;68.70;;;;;;5096651;28;20505;-74
2022/03/19 03:54:36;;;;;;;41.63;16.30;;;5.40;67.50;;;;;;5098151;27;20048;-74
2022/03/19 03:57:03;;;;;;;38.03;15.55;;;5.30;67.70;;;;;;5094593;28;20130;-74
2022/03/19 03:59:31;;;;;;;36.33;16.25;;;5.10;68.20;;;;;;5114801;27;20039;-74
2022/03/19 04:01:58;;;;;;;41.10;15.98;;;5.30;67.70;;;;;;5109335;27;20031;-74
2022/03/19 04:04:26;;;;;;;40.67;16.60;;;5.20;67.90;;;;;;5096371;28;20154;-74
2022/03/19 04:06:53;;;;;;;37.08;14.93;;;5.00;68.10;;;;;;5110360;27;20039;-74
2022/03/19 04:09:21;;;;;;;38.95;16.05;;;5.00;68.60;;;;;;5111868;27;20035;-74
2022/03/19 04:11:48;;;;;;;37.03;14.88;;;5.00;68.50;;;;;;5095755;28;20089;-74
2022/03/19 04:14:15;;;;;;;37.65;13.98;;;5.30;67.60;;;;;;5110695;27;20561;-74
2022/03/19 04:16:42;;;;;;;37.83;15.13;;;5.20;67.30;;;;;;5099379;28;20063;-74
2022/03/19 04:19:09;;;;;;;40.15;16.50;;;5.00;68.10;;;;;;5112325;28;20035;-74
2022/03/19 04:21:42;;;;;;;44.80;16.48;;;4.90;68.70;;;;;;5095644;28;20043;-74
2022/03/19 04:24:09;;;;;;;40.85;15.82;;;4.90;68.80;;;;;;5095460;28;20073;-74
2022/03/19 04:26:36;;;;;;;38.72;15.77;;;4.80;69.50;;;;;;5113305;27;20039;-74
2022/03/19 04:29:03;;;;;;;38.17;15.27;;;5.00;68.10;;;;;;5111535;28;20043;-74
2022/03/19 04:31:30;;;;;;;37.40;15.27;;;4.90;68.70;;;;;;5094523;28;20050;-74
2022/03/19 04:33:57;;;;;;;38.35;15.10;;;5.00;68.90;;;;;;5101114;28;20051;-74
2022/03/19 04:36:30;;;;;;;40.15;14.35;;;5.30;67.90;;;;;;5108994;27;20039;-74
2022/03/19 04:39:02;;;;;;;;;;;5.50;66.60;;;;;;5113421;28;20047;-74
2022/03/19 04:41:29;;;;;;;34.30;13.82;;;5.40;66.30;;;;;;5098356;28;19927;-74
2022/03/19 04:43:56;;;;;;;42.13;15.82;;;5.50;66.20;;;;;;5097998;28;20092;-74
2022/03/19 04:46:24;;;;;;;42.78;16.08;;;5.60;66.30;;;;;;5113181;28;20047;-74
2022/03/19 04:48:52;;;;;;;34.97;14.90;;;5.60;66.40;;;;;;5112332;28;20039;-74
2022/03/19 04:51:21;;;;;;;45.92;16.52;;;5.60;66.70;;;;;;5112015;27;20035;-74
2022/03/19 04:53:52;;;;;;;36.88;15.93;;;5.60;66.90;;;;;;5077927;28;20062;-74
2022/03/19 04:56:24;;;;;;;38.15;15.18;;;5.70;66.70;;;;;;5111358;28;20054;-74
2022/03/19 04:58:53;;;;;;;39.65;16.95;;;5.90;65.90;;;;;;5110838;27;20052;-74
2022/03/19 05:01:21;;;;;;;40.63;16.90;;;5.80;66.30;;;;;;5098254;28;20434;-74
2022/03/19 05:03:48;;;;;;;44.00;17.67;;;5.60;66.60;;;;;;5099275;28;20062;-74
2022/03/19 05:06:15;;;;;;;45.20;16.98;;;5.70;66.90;;;;;;5114069;28;20119;-74
2022/03/19 05:08:42;;;;;;;42.83;16.83;;;5.70;66.60;;;;;;5082387;28;20561;-74
2022/03/19 05:11:17;;;;;;;43.70;18.05;;;5.70;66.40;;;;;;5110466;27;20133;-74
2022/03/19 05:13:48;;;;;;;47.90;18.73;;;5.50;67.50;;;;;;5081692;27;20816;-74
2022/03/19 05:16:18;;;;;;;45.55;18.27;;;5.40;67.60;;;;;;5117168;27;20044;-74
2022/03/19 05:18:45;;;;;;;54.13;18.85;;;5.10;68.40;;;;;;5082809;27;20041;-74
2022/03/19 05:21:14;;;;;;;48.33;19.10;;;4.90;68.70;;;;;;5098865;27;20553;-74
2022/03/19 05:23:43;;;;;;;47.92;19.65;;;5.00;69.10;;;;;;5082430;27;20084;-74
2022/03/19 05:26:11;;;;;;;43.42;18.83;;;5.00;68.90;;;;;;5116993;27;20047;-74
2022/03/19 05:28:38;;;;;;;52.72;20.48;;;5.10;68.60;;;;;;5098853;27;20043;-74
2022/03/19 05:31:27;;;;;;;45.65;17.42;;;5.30;68.00;;;;;;5115182;27;22366;-74
2022/03/19 05:36:40;;;;;;;46.33;18.60;;;5.20;68.20;;;;;;5090848;27;20051;-74
2022/03/19 05:39:07;;;;;;;48.75;17.83;;;5.20;68.00;;;;;;5116926;27;20064;-74
2022/03/19 05:41:34;;;;;;;44.00;18.35;;;5.40;67.20;;;;;;5101641;27;20077;-74
2022/03/19 05:44:01;;;;;;;46.90;17.23;;;5.50;66.90;;;;;;5113462;27;20405;-74
2022/03/19 05:46:28;;;;;;;43.17;16.45;;;5.50;66.90;;;;;;5082007;27;20066;-74
2022/03/19 05:48:56;;;;;;;42.65;17.00;;;5.30;67.20;;;;;;5114870;27;20023;-74
2022/03/19 05:51:23;;;;;;;41.75;16.52;;;5.40;67.30;;;;;;5100368;27;20124;-75
2022/03/19 05:53:50;;;;;;;49.00;17.45;;;5.30;67.40;;;;;;5096879;27;20111;-74
2022/03/19 05:56:18;;;;;;;39.72;16.48;;;5.50;66.70;;;;;;5097907;27;20051;-74
2022/03/19 05:58:45;;;;;;;39.00;16.40;;;5.60;66.60;;;;;;5080551;27;20039;-74
2022/03/19 06:01:12;;;;;;;40.13;16.95;;;5.50;66.50;;;;;;5111640;27;20036;-74
2022/03/19 06:03:39;;;;;;;39.75;17.38;;;5.50;66.40;;;;;;5113427;27;20039;-74
2022/03/19 06:06:06;;;;;;;45.42;16.13;;;5.40;67.10;;;;;;5079553;27;20042;-74
2022/03/19 06:08:34;;;;;;;40.00;16.45;;;5.50;67.10;;;;;;5115366;27;20042;-74
2022/03/19 06:11:02;;;;;;;41.55;16.55;;;5.60;66.70;;;;;;5081929;27;20047;-74
2022/03/19 06:13:29;;;;;;;41.60;16.70;;;5.80;66.00;;;;;;5080070;27;20162;-74
2022/03/19 06:15:56;;;;;;;37.30;14.65;;;6.00;65.90;;;;;;5097275;27;21005;-74
2022/03/19 06:18:23;;;;;;;41.13;16.83;;;6.20;65.40;;;;;;5112585;27;20044;-74
2022/03/19 06:20:50;;;;;;;40.15;16.33;;;6.30;64.40;;;;;;5115760;27;20035;-74
2022/03/19 06:23:17;;;;;;;42.47;16.17;;;6.20;64.40;;;;;;5082082;27;20067;-74
2022/03/19 06:25:44;;;;;;;35.70;15.00;;;6.20;64.90;;;;;;5100487;27;20039;-74
2022/03/19 06:28:11;;;;;;;41.10;16.05;;;6.20;64.50;;;;;;5097771;27;20123;-74
2022/03/19 06:30:39;;;;;;;42.10;16.02;;;6.30;64.10;;;;;;5082353;27;20048;-74
2022/03/19 06:33:06;;;;;;;36.13;14.93;;;6.40;64.40;;;;;;5101128;27;20039;-74
2022/03/19 06:38:23;;;;;;;35.53;15.13;;;6.70;63.70;;;;;;5116968;27;20778;-74
2022/03/19 06:40:50;;;;;;;36.35;16.48;;;6.80;63.00;;;;;;5098153;27;20141;-74
2022/03/19 06:43:18;;;;;;;46.75;17.25;;;6.80;63.20;;;;;;5100456;27;20117;-74
2022/03/19 06:45:45;;;;;;;37.92;15.93;;;6.80;63.20;;;;;;5101332;27;20379;-74
2022/03/19 06:48:13;;;;;;;38.47;15.38;;;6.90;63.40;;;;;;5097325;27;20043;-74
2022/03/19 06:50:39;;;;;;;34.50;15.30;;;7.00;63.30;;;;;;5097538;27;20402;-74
2022/03/19 06:53:07;;;;;;;41.55;15.57;;;7.20;63.40;;;;;;5097811;27;20070;-73
2022/03/19 06:55:34;;;;;;;31.63;14.75;;;7.20;62.80;;;;;;5114225;27;20070;-74
2022/03/19 06:58:01;;;;;;;38.80;14.93;;;7.40;62.20;;;;;;5110884;27;20044;-74
2022/03/19 07:00:28;;;;;;;35.65;15.57;;;7.30;61.70;;;;;;5076157;27;20071;-74
2022/03/19 07:02:56;;;;;;;43.92;17.90;;;7.40;61.90;;;;;;5078166;27;20096;-74
2022/03/19 07:05:25;;;;;;;48.08;16.15;;;7.60;61.40;;;;;;5110577;27;20137;-74
2022/03/19 07:07:54;;;;;;;32.40;13.65;;;7.50;61.40;;;;;;5112888;27;20043;-73
2022/03/19 07:10:21;;;;;;;32.35;13.95;;;7.40;61.80;;;;;;5097069;27;20118;-75
2022/03/19 07:12:52;;;;;;;37.30;14.18;;;7.50;62.20;;;;;;5112458;27;20036;-75
2022/03/19 07:15:24;;;;;;;28.83;12.93;;;7.50;62.10;;;;;;5099974;27;20043;-73
2022/03/19 07:17:52;;;;;;;33.47;13.65;;;7.70;62.20;;;;;;5095365;27;20048;-73
2022/03/19 07:20:19;;;;;;;30.65;12.90;;;7.70;61.70;;;;;;5080456;27;20051;-73
2022/03/19 07:22:49;;;;;;;27.42;12.07;;;7.80;61.90;;;;;;5111659;27;20070;-73
2022/03/19 07:25:19;;;;;;;23.63;12.00;;;7.80;61.60;;;;;;5096033;27;20039;-73
2022/03/19 07:27:49;;;;;;;30.90;12.25;;;8.00;61.30;;;;;;5097798;27;20035;-73
2022/03/19 07:30:17;;;;;;;27.48;11.80;;;8.00;60.70;;;;;;5087724;27;20047;-74
2022/03/19 07:32:46;;;;;;;28.08;12.45;;;8.10;60.80;;;;;;5095298;27;20040;-74
2022/03/19 07:35:14;;;;;;;29.35;13.00;;;8.10;60.60;;;;;;5097340;27;20042;-74
2022/03/19 07:37:43;;;;;;;27.88;11.13;;;8.00;60.90;;;;;;5078497;27;20063;-74
2022/03/19 07:41:45;;;;;;;24.55;11.90;;;8.10;60.60;;;;;;5079674;27;20047;-75
2022/03/19 07:43:36;;;;;;;27.75;11.80;;;8.10;60.70;;;;;;5114076;27;20039;-74
2022/03/19 07:46:03;;;;;;;27.00;11.57;;;8.20;59.90;;;;;;5109233;27;20050;-74
2022/03/19 07:48:30;;;;;;;27.33;11.40;;;8.30;60.20;;;;;;5085755;28;20043;-74
2022/03/19 07:50:57;;;;;;;30.20;11.63;;;8.40;60.00;;;;;;5097160;27;20672;-74
2022/03/19 07:53:24;;;;;;;26.60;12.20;;;8.40;60.20;;;;;;5080838;28;20049;-74
2022/03/19 07:55:53;;;;;;;33.38;14.50;;;8.50;59.90;;;;;;5076597;27;20051;-74
2022/03/19 07:58:22;;;;;;;28.65;12.65;;;8.50;59.50;;;;;;5093850;28;20400;-74
2022/03/19 08:00:49;;;;;;;29.27;12.77;;;8.70;60.00;;;;;;5094760;27;20099;-74
2022/03/19 08:03:17;;;;;;;27.70;11.65;;;8.70;59.30;;;;;;5116794;27;20043;-74
2022/03/19 08:05:44;;;;;;;27.55;12.57;;;8.90;59.10;;;;;;5079805;28;20450;-75
2022/03/19 08:08:12;;;;;;;32.00;12.27;;;8.80;59.20;;;;;;5076747;28;20051;-74
2022/03/19 08:10:40;;;;;;;24.73;12.55;;;8.80;59.60;;;;;;5096516;27;20031;-74
2022/03/19 08:13:08;;;;;;;27.70;12.65;;;9.00;59.20;;;;;;5078348;28;20100;-74
2022/03/19 08:15:39;;;;;;;32.83;13.27;;;9.10;59.10;;;;;;5096643;28;20050;-74
2022/03/19 08:18:09;;;;;;;31.23;13.05;;;9.00;58.80;;;;;;5088882;28;20193;-74
2022/03/19 08:20:37;;;;;;;28.92;12.05;;;8.90;59.90;;;;;;5093015;28;20709;-74
2022/03/19 08:23:05;;;;;;;28.83;12.90;;;9.00;59.30;;;;;;5098094;28;20067;-74
2022/03/19 08:25:32;;;;;;;25.75;11.77;;;9.10;59.10;;;;;;5096333;28;20077;-74
2022/03/19 08:27:59;;;;;;;25.50;12.15;;;9.10;59.10;;;;;;5095815;28;20048;-74
2022/03/19 08:30:32;;;;;;;28.70;12.55;;;9.20;59.50;;;;;;5078507;28;20672;-74
2022/03/19 08:32:59;;;;;;;29.65;13.90;;;9.30;58.70;;;;;;5092887;28;20035;-74
2022/03/19 08:35:26;;;;;;;29.42;13.05;;;9.40;58.40;;;;;;5078384;28;20047;-74
2022/03/19 08:40:15;;;;;;;30.13;13.82;;;9.50;59.20;;;;;;5095296;28;20114;-75
2022/03/19 08:40:41;;;;;;;29.00;12.52;;;9.50;58.50;;;;;;5109228;28;20051;-75
2022/03/19 08:43:08;;;;;;;30.73;13.27;;;9.60;58.60;;;;;;5088599;28;20039;-74
2022/03/19 08:45:35;;;;;;;27.38;13.32;;;9.60;58.50;;;;;;5077183;28;20776;-74
2022/03/19 08:48:03;;;;;;;26.80;12.38;;;9.60;58.30;;;;;;5098070;27;20119;-74
2022/03/19 08:50:30;;;;;;;26.35;11.63;;;9.60;58.40;;;;;;5083167;27;20042;-74
2022/03/19 08:52:57;;;;;;;27.95;13.70;;;9.70;58.90;;;;;;5097158;27;20040;-74
2022/03/19 08:55:24;;;;;;;24.17;12.15;;;9.70;58.50;;;;;;5096510;27;20047;-74
2022/03/19 08:57:51;;;;;;;25.08;11.18;;;9.70;58.40;;;;;;5112937;27;20320;-74
2022/03/19 09:00:18;;;;;;;29.35;12.18;;;9.80;58.90;;;;;;5113463;27;20054;-75
2022/03/19 09:02:45;;;;;;;27.20;12.95;;;9.80;58.00;;;;;;5100368;27;20044;-76
2022/03/19 09:05:13;;;;;;;24.17;11.32;;;9.90;57.80;;;;;;5076695;27;20051;-74
2022/03/19 09:07:40;;;;;;;22.40;10.73;;;10.00;57.50;;;;;;5099815;27;20111;-74
2022/03/19 09:10:07;;;;;;;21.73;11.77;;;10.00;57.20;;;;;;5099227;27;20055;-74
2022/03/19 09:12:37;;;;;;;23.52;10.90;;;10.10;56.90;;;;;;5113754;27;20143;-74
2022/03/19 09:15:06;;;;;;;28.92;12.00;;;10.10;56.70;;;;;;5098976;27;20047;-74
2022/03/19 09:17:34;;;;;;;23.20;10.90;;;10.10;57.10;;;;;;5101104;27;20655;-74
2022/03/19 09:20:01;;;;;;;25.35;12.30;;;10.20;56.80;;;;;;5103821;27;20051;-74
2022/03/19 09:22:30;;;;;;;30.33;12.00;;;10.20;57.10;;;;;;5101008;27;20147;-74
2022/03/19 09:24:57;;;;;;;28.85;11.77;;;10.20;56.70;;;;;;5100032;27;20457;-74
2022/03/19 09:27:25;;;;;;;25.45;12.77;;;10.30;56.60;;;;;;5094714;27;20125;-75
2022/03/19 09:29:52;;;;;;;34.30;12.60;;;10.30;56.30;;;;;;5081453;27;20047;-75
2022/03/19 09:32:19;;;;;;;27.77;13.05;;;10.40;56.50;;;;;;5094502;27;20043;-75
2022/03/19 09:34:49;;;;;;;24.00;11.35;;;10.50;56.60;;;;;;5079841;27;20046;-76
2022/03/19 09:37:16;;;;;;;26.73;11.00;;;10.50;55.70;;;;;;5081975;27;20070;-75
2022/03/19 09:39:43;;;;;;;22.27;11.85;;;10.60;56.00;;;;;;5112981;27;20092;-75
2022/03/19 09:42:12;;;;;;;19.50;11.10;;;10.70;55.60;;;;;;5095744;27;20059;-75
2022/03/19 09:44:43;;;;;;;25.95;11.50;;;10.90;56.40;;;;;;5076810;27;20050;-74
2022/03/19 09:47:12;;;;;;;24.65;11.95;;;11.20;55.20;;;;;;5113986;27;20451;-74
2022/03/19 09:49:40;;;;;;;21.77;11.07;;;11.40;54.00;;;;;;5083853;27;20630;-76
2022/03/19 09:52:10;;;;;;;22.15;10.30;;;11.30;54.20;;;;;;5100994;27;20118;-75
2022/03/19 09:54:37;;;;;;;21.55;9.77;;;11.40;52.60;;;;;;5112490;27;20039;-75
2022/03/19 09:57:05;;;;;;;17.52;8.18;;;11.60;48.40;;;;;;5080312;27;20055;-75
2022/03/19 09:59:34;;;;;;;15.45;7.53;;;11.70;46.20;;;;;;5083441;27;20051;-76
2022/03/19 10:02:05;;;;;;;18.13;8.40;;;11.70;45.70;;;;;;5100385;27;20051;-76
2022/03/19 10:04:33;;;;;;;23.43;10.40;;;11.90;47.90;;;;;;5098678;27;20081;-77
2022/03/19 10:09:47;;;;;;;21.77;11.73;;;12.20;50.80;;;;;;5114044;27;20110;-76
2022/03/19 10:12:20;;;;;;;23.10;10.60;;;12.50;50.40;;;;;;5099802;27;20063;-76
2022/03/19 10:14:59;;;;;;;26.42;13.23;;;12.60;49.50;;;;;;5109288;27;20915;-77
2022/03/19 10:17:31;;;;;;;26.33;12.73;;;12.70;48.90;;;;;;5095702;27;20039;-77
2022/03/19 10:19:59;;;;;;;27.35;11.15;;;12.80;49.50;;;;;;5098396;27;20080;-77
2022/03/19 10:22:29;;;;;;;23.27;11.23;;;12.90;49.20;;;;;;5109151;27;20580;-76
2022/03/19 10:25:05;;;;;;;20.83;11.27;;;12.90;48.90;;;;;;5094797;27;20585;-76
2022/03/19 10:27:37;;;;;;;26.40;12.73;;;12.90;48.10;;;;;;5096788;27;20050;-77
2022/03/19 10:30:16;;;;;;;25.50;11.48;;;13.00;48.70;;;;;;5080045;27;20065;-77
2022/03/19 10:32:51;;;;;;;22.73;11.48;;;13.10;48.00;;;;;;5094158;27;20047;-77
2022/03/19 10:35:33;;;;;;;20.05;11.18;;;13.20;47.70;;;;;;5078543;27;20096;-76
2022/03/19 10:38:16;;;;;;;20.05;10.55;;;13.20;47.00;;;;;;5097085;27;20069;-77
2022/03/19 10:40:47;;;;;;;18.45;10.35;;;13.30;47.30;;;;;;5084112;27;20139;-76
2022/03/19 10:43:18;;;;;;;19.05;8.95;;;13.80;46.70;;;;;;5105991;27;20043;-76
2022/03/19 10:45:51;;;;;;;16.95;9.27;;;13.30;45.60;;;;;;5086726;27;20043;-76
2022/03/19 10:48:28;;;;;;;16.98;9.30;;;13.30;45.40;;;;;;5079440;27;20047;-76
2022/03/19 10:50:58;;;;;;;14.65;7.22;;;13.30;46.30;;;;;;5089138;27;20035;-77
2022/03/19 10:53:26;;;;;;;13.63;6.43;;;13.60;41.80;;;;;;5094715;27;20039;-77
2022/03/19 10:55:56;;;;;;;13.95;6.50;;;13.60;40.50;;;;;;5107293;27;20036;-76
2022/03/19 10:58:24;;;;;;;11.98;6.28;;;13.80;40.80;;;;;;5082139;27;20047;-76
2022/03/19 11:01:09;;;;;;;15.70;8.15;;;13.80;41.50;;;;;;5115459;27;20045;-77
2022/03/19 11:03:39;;;;;;;18.00;8.27;;;13.90;40.40;;;;;;5082257;27;20058;-76
2022/03/19 11:06:08;;;;;;;19.83;8.05;;;14.10;40.30;;;;;;5096280;27;20517;-76
2022/03/19 11:08:43;;;;;;;15.70;7.90;;;14.20;40.60;;;;;;5078212;27;20512;-76
2022/03/19 11:11:27;;;;;;;15.25;7.10;;;14.00;40.30;;;;;;5109995;27;20055;-75
2022/03/19 11:13:58;;;;;;;14.93;7.47;;;13.90;40.90;;;;;;5096981;27;20426;-75
2022/03/19 11:16:26;;;;;;;13.13;6.57;;;13.80;40.40;;;;;;5097880;27;21051;-76
2022/03/19 11:18:54;;;;;;;13.48;7.28;;;13.90;40.70;;;;;;5115182;27;20039;-75
2022/03/19 11:21:23;;;;;;;14.55;7.75;;;14.00;39.90;;;;;;5113446;27;20053;-76
2022/03/19 11:24:19;;;;;;;14.85;7.07;;;14.10;40.00;;;;;;5097301;27;20043;-76
2022/03/19 11:26:48;;;;;;;14.10;7.47;;;14.10;40.20;;;;;;5098514;27;20039;-76
2022/03/19 11:29:16;;;;;;;14.88;7.63;;;14.00;39.60;;;;;;5109277;27;20043;-75
2022/03/19 11:32:01;;;;;;;18.15;8.50;;;14.00;40.50;;;;;;5096864;27;20035;-76
2022/03/19 11:34:48;;;;;;;13.90;7.30;;;14.10;39.80;;;;;;5116459;27;20063;-76
2022/03/19 11:37:15;;;;;;;15.70;7.88;;;14.20;38.90;;;;;;5099474;28;20043;-73
2022/03/19 11:40:04;;;;;;;11.15;6.63;;;14.20;40.30;;;;;;5111722;27;20417;-73
2022/03/19 11:42:32;;;;;;;14.23;7.22;;;14.30;40.20;;;;;;5078751;27;20050;-73
2022/03/19 11:45:10;;;;;;;13.65;6.57;;;14.40;38.70;;;;;;5094910;27;20969;-73
2022/03/19 11:47:38;;;;;;;12.23;6.05;;;14.40;38.20;;;;;;5109045;27;20409;-76
2022/03/19 11:50:33;;;;;;;15.90;7.82;;;14.50;38.80;;;;;;5081547;27;20059;-76
2022/03/19 11:53:06;;;;;;;15.05;7.72;;;14.40;39.20;;;;;;5095420;27;20039;-74
2022/03/19 11:55:37;;;;;;;13.65;6.72;;;14.60;38.00;;;;;;5113631;27;20035;-74
2022/03/19 11:58:08;;;;;;;14.15;6.45;;;14.70;37.20;;;;;;5082150;28;20057;-74
2022/03/19 12:00:38;;;;;;;17.23;6.15;;;14.70;37.60;;;;;;5113138;27;20051;-74
2022/03/19 12:03:07;;;;;;;12.32;5.72;;;14.70;34.90;;;;;;5094785;28;20039;-74
2022/03/19 12:05:37;;;;;;;12.02;5.80;;;14.60;35.10;;;;;;5098549;28;20122;-73
2022/03/19 12:08:18;;;;;;;13.02;6.25;;;14.70;35.80;;;;;;5094767;28;20189;-74
2022/03/19 12:10:54;;;;;;;11.00;5.85;;;14.80;36.20;;;;;;5096231;28;20039;-77
2022/03/19 12:13:27;;;;;;;11.27;6.20;;;14.90;35.70;;;;;;5096743;28;20054;-74
2022/03/19 12:15:59;;;;;;;14.43;6.45;;;15.00;35.40;;;;;;5097413;28;20043;-74
2022/03/19 12:18:43;;;;;;;12.95;5.30;;;15.00;34.80;;;;;;5112261;28;20907;-73
2022/03/19 12:21:09;;;;;;;;;;;14.90;34.80;;;;;;5078696;28;20058;-75
2022/03/19 12:24:08;;;;;;;9.40;5.10;;;14.90;33.90;;;;;;5095575;27;19923;-75
2022/03/19 12:26:42;;;;;;;8.65;4.45;;;14.90;34.20;;;;;;5088010;27;20058;-75
2022/03/19 12:29:11;;;;;;;10.88;5.57;;;15.00;33.60;;;;;;5098438;27;20050;-74
2022/03/19 12:31:45;;;;;;;11.02;4.97;;;15.00;33.90;;;;;;5098244;27;20051;-74
2022/03/19 12:34:22;;;;;;;10.00;4.90;;;15.00;33.00;;;;;;5115007;27;20472;-74
2022/03/19 12:37:01;;;;;;;11.02;4.63;;;15.10;32.80;;;;;;5103978;27;20043;-75
2022/03/19 12:39:29;;;;;;;11.85;5.22;;;15.10;31.80;;;;;;5098060;27;20043;-73
2022/03/19 12:41:57;;;;;;;10.18;4.93;;;15.10;32.10;;;;;;5100081;27;20402;-75
2022/03/19 12:44:36;;;;;;;9.35;5.07;;;15.10;31.70;;;;;;5101393;27;20066;-77
2022/03/19 12:47:06;;;;;;;10.90;5.43;;;15.10;31.50;;;;;;5096748;27;20134;-75
2022/03/19 12:49:33;;;;;;;13.68;5.10;;;15.10;31.50;;;;;;5116384;27;20037;-75
2022/03/19 12:52:09;;;;;;;9.93;5.05;;;15.10;31.00;;;;;;5115941;27;21376;-74
2022/03/19 12:54:43;;;;;;;11.23;5.20;;;15.00;31.50;;;;;;5083012;27;20042;-74
2022/03/19 12:57:13;;;;;;;10.05;4.88;;;15.00;31.50;;;;;;5117600;27;20753;-74
2022/03/19 12:59:52;;;;;;;9.60;5.07;;;15.10;31.50;;;;;;5098178;27;20524;-74